sensor_id;sensor_type;location;lat;lon;timestamp;P1;durP1;ratioP1;P2;durP2;ratioP2
21661;SDS011;10992;48.170;8.596;2023-08-31T00:02:03;3.00;;;2.38;;
21661;SDS011;10992;48.170;8.596;2023-08-31T00:04:30;2.22;;;1.85;;
21661;SDS011;10992;48.170;8.596;2023-08-31T00:06:57;2.40;;;1.70;;
21661;SDS011;10992;48.170;8.596;2023-08-31T00:09:24;2.45;;;1.83;;
21661;SDS011;10992;48.170;8.596;2023-08-31T00:11:51;3.85;;;2.17;;
21661;SDS011;10992;48.170;8.596;2023-08-31T00:14:18;2.35;;;2.03;;
21661;SDS011;10992;48.170;8.596;2023-08-31T00:16:45;3.08;;;2.00;;
21661;SDS011;10992;48.170;8.596;2023-08-31T00:19:13;6.47;;;2.50;;
21661;SDS011;10992;48.170;8.596;2023-08-31T00:21:41;3.15;;;2.30;;
21661;SDS011;10992;48.170;8.596;2023-08-31T00:24:09;5.20;;;2.25;;
21661;SDS011;10992;48.170;8.596;2023-08-31T00:26:36;5.05;;;2.03;;
21661;SDS011;10992;48.170;8.596;2023-08-31T00:29:08;4.47;;;2.40;;
21661;SDS011;10992;48.170;8.596;2023-08-31T00:31:37;3.72;;;2.45;;
21661;SDS011;10992;48.170;8.596;2023-08-31T00:34:05;3.15;;;2.75;;
21661;SDS011;10992;48.170;8.596;2023-08-31T00:36:33;4.38;;;3.05;;
21661;SDS011;10992;48.170;8.596;2023-08-31T00:39:03;5.00;;;3.30;;
21661;SDS011;10992;48.170;8.596;2023-08-31T00:41:38;5.28;;;3.55;;
21661;SDS011;10992;48.170;8.596;2023-08-31T00:44:05;5.93;;;3.97;;
21661;SDS011;10992;48.170;8.596;2023-08-31T00:46:33;4.95;;;4.45;;
21661;SDS011;10992;48.170;8.596;2023-08-31T00:49:01;4.32;;;3.80;;
21661;SDS011;10992;48.170;8.596;2023-08-31T00:51:30;5.93;;;4.85;;
21661;SDS011;10992;48.170;8.596;2023-08-31T00:53:57;4.80;;;3.67;;
21661;SDS011;10992;48.170;8.596;2023-08-31T00:56:26;4.93;;;3.90;;
21661;SDS011;10992;48.170;8.596;2023-08-31T00:58:53;5.40;;;3.90;;
21661;SDS011;10992;48.170;8.596;2023-08-31T01:01:36;5.30;;;4.80;;
21661;SDS011;10992;48.170;8.596;2023-08-31T01:04:17;5.97;;;4.32;;
21661;SDS011;10992;48.170;8.596;2023-08-31T01:06:53;5.38;;;4.57;;
21661;SDS011;10992;48.170;8.596;2023-08-31T01:12:37;8.10;;;4.88;;
21661;SDS011;10992;48.170;8.596;2023-08-31T01:15:27;7.03;;;4.80;;
21661;SDS011;10992;48.170;8.596;2023-08-31T01:17:58;5.70;;;4.38;;
21661;SDS011;10992;48.170;8.596;2023-08-31T01:20:34;4.60;;;3.92;;
21661;SDS011;10992;48.170;8.596;2023-08-31T01:23:06;5.65;;;3.92;;
21661;SDS011;10992;48.170;8.596;2023-08-31T01:25:41;5.93;;;3.17;;
21661;SDS011;10992;48.170;8.596;2023-08-31T01:28:10;6.50;;;3.75;;
21661;SDS011;10992;48.170;8.596;2023-08-31T01:30:38;5.75;;;4.65;;
21661;SDS011;10992;48.170;8.596;2023-08-31T01:33:04;4.53;;;4.03;;
21661;SDS011;10992;48.170;8.596;2023-08-31T01:35:38;4.22;;;3.83;;
21661;SDS011;10992;48.170;8.596;2023-08-31T01:38:09;6.97;;;4.63;;
21661;SDS011;10992;48.170;8.596;2023-08-31T01:40:44;5.80;;;4.78;;
21661;SDS011;10992;48.170;8.596;2023-08-31T01:43:19;6.60;;;4.70;;
21661;SDS011;10992;48.170;8.596;2023-08-31T01:45:48;8.00;;;4.88;;
21661;SDS011;10992;48.170;8.596;2023-08-31T01:48:15;5.32;;;4.32;;
21661;SDS011;10992;48.170;8.596;2023-08-31T01:50:43;7.28;;;4.53;;
21661;SDS011;10992;48.170;8.596;2023-08-31T01:53:12;7.45;;;4.53;;
21661;SDS011;10992;48.170;8.596;2023-08-31T01:55:40;7.30;;;4.53;;
21661;SDS011;10992;48.170;8.596;2023-08-31T01:58:07;6.75;;;4.63;;
21661;SDS011;10992;48.170;8.596;2023-08-31T02:00:35;6.55;;;4.88;;
21661;SDS011;10992;48.170;8.596;2023-08-31T02:03:05;8.80;;;5.78;;
21661;SDS011;10992;48.170;8.596;2023-08-31T02:05:34;10.77;;;5.20;;
21661;SDS011;10992;48.170;8.596;2023-08-31T02:08:01;8.52;;;5.88;;
21661;SDS011;10992;48.170;8.596;2023-08-31T02:10:28;11.65;;;5.65;;
21661;SDS011;10992;48.170;8.596;2023-08-31T02:12:56;7.07;;;5.57;;
21661;SDS011;10992;48.170;8.596;2023-08-31T02:15:23;7.72;;;5.75;;
21661;SDS011;10992;48.170;8.596;2023-08-31T02:17:50;10.48;;;5.68;;
21661;SDS011;10992;48.170;8.596;2023-08-31T02:20:17;7.70;;;5.70;;
21661;SDS011;10992;48.170;8.596;2023-08-31T02:22:46;7.10;;;5.50;;
21661;SDS011;10992;48.170;8.596;2023-08-31T02:25:13;13.88;;;6.82;;
21661;SDS011;10992;48.170;8.596;2023-08-31T02:27:40;9.93;;;5.68;;
21661;SDS011;10992;48.170;8.596;2023-08-31T02:30:07;9.77;;;5.20;;
21661;SDS011;10992;48.170;8.596;2023-08-31T02:32:35;8.45;;;5.25;;
21661;SDS011;10992;48.170;8.596;2023-08-31T02:35:02;6.25;;;5.20;;
21661;SDS011;10992;48.170;8.596;2023-08-31T02:37:29;5.80;;;4.70;;
21661;SDS011;10992;48.170;8.596;2023-08-31T02:39:56;7.65;;;5.35;;
21661;SDS011;10992;48.170;8.596;2023-08-31T02:42:23;7.72;;;5.68;;
21661;SDS011;10992;48.170;8.596;2023-08-31T02:44:53;5.80;;;4.60;;
21661;SDS011;10992;48.170;8.596;2023-08-31T02:47:20;5.70;;;4.40;;
21661;SDS011;10992;48.170;8.596;2023-08-31T02:49:47;7.97;;;4.78;;
21661;SDS011;10992;48.170;8.596;2023-08-31T02:52:14;5.65;;;4.38;;
21661;SDS011;10992;48.170;8.596;2023-08-31T02:54:41;7.80;;;4.28;;
21661;SDS011;10992;48.170;8.596;2023-08-31T02:57:08;5.75;;;4.20;;
21661;SDS011;10992;48.170;8.596;2023-08-31T02:59:35;6.50;;;4.18;;
21661;SDS011;10992;48.170;8.596;2023-08-31T03:02:02;5.28;;;3.83;;
21661;SDS011;10992;48.170;8.596;2023-08-31T03:04:30;4.82;;;3.97;;
21661;SDS011;10992;48.170;8.596;2023-08-31T03:06:57;6.88;;;4.20;;
21661;SDS011;10992;48.170;8.596;2023-08-31T03:09:24;5.45;;;3.90;;
21661;SDS011;10992;48.170;8.596;2023-08-31T03:11:51;6.13;;;4.30;;
21661;SDS011;10992;48.170;8.596;2023-08-31T03:14:19;8.10;;;4.90;;
21661;SDS011;10992;48.170;8.596;2023-08-31T03:16:46;6.20;;;4.63;;
21661;SDS011;10992;48.170;8.596;2023-08-31T03:19:14;8.73;;;4.60;;
21661;SDS011;10992;48.170;8.596;2023-08-31T03:21:40;7.40;;;4.45;;
21661;SDS011;10992;48.170;8.596;2023-08-31T03:24:07;7.35;;;4.80;;
21661;SDS011;10992;48.170;8.596;2023-08-31T03:26:34;6.55;;;4.85;;
21661;SDS011;10992;48.170;8.596;2023-08-31T03:29:02;6.60;;;4.22;;
21661;SDS011;10992;48.170;8.596;2023-08-31T03:31:30;8.25;;;4.63;;
21661;SDS011;10992;48.170;8.596;2023-08-31T03:33:57;7.45;;;4.40;;
21661;SDS011;10992;48.170;8.596;2023-08-31T03:36:25;8.43;;;4.90;;
21661;SDS011;10992;48.170;8.596;2023-08-31T03:38:52;5.65;;;4.03;;
21661;SDS011;10992;48.170;8.596;2023-08-31T03:41:19;7.93;;;4.25;;
21661;SDS011;10992;48.170;8.596;2023-08-31T03:43:45;10.65;;;4.13;;
21661;SDS011;10992;48.170;8.596;2023-08-31T03:46:12;7.18;;;3.65;;
21661;SDS011;10992;48.170;8.596;2023-08-31T03:48:39;6.43;;;3.85;;
21661;SDS011;10992;48.170;8.596;2023-08-31T03:51:06;7.28;;;3.92;;
21661;SDS011;10992;48.170;8.596;2023-08-31T03:53:33;7.15;;;4.00;;
21661;SDS011;10992;48.170;8.596;2023-08-31T03:56:01;4.50;;;3.63;;
21661;SDS011;10992;48.170;8.596;2023-08-31T03:58:30;6.78;;;3.60;;
21661;SDS011;10992;48.170;8.596;2023-08-31T04:00:57;6.13;;;3.60;;
21661;SDS011;10992;48.170;8.596;2023-08-31T04:03:24;6.68;;;4.03;;
21661;SDS011;10992;48.170;8.596;2023-08-31T04:05:55;4.40;;;3.65;;
21661;SDS011;10992;48.170;8.596;2023-08-31T04:08:22;5.10;;;3.92;;
21661;SDS011;10992;48.170;8.596;2023-08-31T04:10:49;4.90;;;3.47;;
21661;SDS011;10992;48.170;8.596;2023-08-31T04:13:16;5.53;;;3.30;;
21661;SDS011;10992;48.170;8.596;2023-08-31T04:15:43;7.60;;;3.67;;
21661;SDS011;10992;48.170;8.596;2023-08-31T04:18:10;8.32;;;3.80;;
21661;SDS011;10992;48.170;8.596;2023-08-31T04:20:37;7.97;;;4.72;;
21661;SDS011;10992;48.170;8.596;2023-08-31T04:23:04;5.22;;;3.60;;
21661;SDS011;10992;48.170;8.596;2023-08-31T04:25:31;5.38;;;4.00;;
21661;SDS011;10992;48.170;8.596;2023-08-31T04:27:58;4.28;;;3.25;;
21661;SDS011;10992;48.170;8.596;2023-08-31T04:30:24;5.85;;;4.07;;
21661;SDS011;10992;48.170;8.596;2023-08-31T04:32:52;4.35;;;3.88;;
21661;SDS011;10992;48.170;8.596;2023-08-31T04:35:20;5.97;;;3.78;;
21661;SDS011;10992;48.170;8.596;2023-08-31T04:37:47;7.30;;;4.47;;
21661;SDS011;10992;48.170;8.596;2023-08-31T04:40:13;5.90;;;4.50;;
21661;SDS011;10992;48.170;8.596;2023-08-31T04:42:40;7.35;;;4.30;;
21661;SDS011;10992;48.170;8.596;2023-08-31T04:45:08;7.93;;;4.90;;
21661;SDS011;10992;48.170;8.596;2023-08-31T04:47:36;7.75;;;4.95;;
21661;SDS011;10992;48.170;8.596;2023-08-31T04:50:04;6.05;;;4.45;;
21661;SDS011;10992;48.170;8.596;2023-08-31T04:52:32;10.10;;;4.88;;
21661;SDS011;10992;48.170;8.596;2023-08-31T04:55:00;7.00;;;3.88;;
21661;SDS011;10992;48.170;8.596;2023-08-31T04:57:29;6.75;;;4.30;;
21661;SDS011;10992;48.170;8.596;2023-08-31T04:59:56;10.25;;;4.63;;
21661;SDS011;10992;48.170;8.596;2023-08-31T05:02:23;4.80;;;4.30;;
21661;SDS011;10992;48.170;8.596;2023-08-31T05:04:50;6.53;;;4.63;;
21661;SDS011;10992;48.170;8.596;2023-08-31T05:07:17;6.88;;;4.35;;
21661;SDS011;10992;48.170;8.596;2023-08-31T05:09:44;8.63;;;4.60;;
21661;SDS011;10992;48.170;8.596;2023-08-31T05:12:11;6.85;;;4.25;;
21661;SDS011;10992;48.170;8.596;2023-08-31T05:14:38;6.00;;;4.18;;
21661;SDS011;10992;48.170;8.596;2023-08-31T05:17:06;11.73;;;4.03;;
21661;SDS011;10992;48.170;8.596;2023-08-31T05:19:33;6.30;;;3.85;;
21661;SDS011;10992;48.170;8.596;2023-08-31T05:22:00;5.05;;;4.18;;
21661;SDS011;10992;48.170;8.596;2023-08-31T05:24:27;4.95;;;3.53;;
21661;SDS011;10992;48.170;8.596;2023-08-31T05:26:54;6.05;;;4.13;;
21661;SDS011;10992;48.170;8.596;2023-08-31T05:29:21;6.45;;;4.20;;
21661;SDS011;10992;48.170;8.596;2023-08-31T05:31:48;8.75;;;4.78;;
21661;SDS011;10992;48.170;8.596;2023-08-31T05:34:20;6.22;;;4.45;;
21661;SDS011;10992;48.170;8.596;2023-08-31T05:36:48;5.10;;;3.75;;
21661;SDS011;10992;48.170;8.596;2023-08-31T05:39:15;3.95;;;2.67;;
21661;SDS011;10992;48.170;8.596;2023-08-31T05:41:45;5.05;;;2.75;;
21661;SDS011;10992;48.170;8.596;2023-08-31T05:44:12;2.88;;;2.38;;
21661;SDS011;10992;48.170;8.596;2023-08-31T05:46:39;2.50;;;1.85;;
21661;SDS011;10992;48.170;8.596;2023-08-31T05:49:07;2.20;;;1.95;;
21661;SDS011;10992;48.170;8.596;2023-08-31T05:51:34;4.32;;;1.98;;
21661;SDS011;10992;48.170;8.596;2023-08-31T05:54:01;3.65;;;1.73;;
21661;SDS011;10992;48.170;8.596;2023-08-31T05:56:29;2.60;;;1.90;;
21661;SDS011;10992;48.170;8.596;2023-08-31T05:58:56;3.97;;;1.90;;
21661;SDS011;10992;48.170;8.596;2023-08-31T06:01:23;3.67;;;1.90;;
21661;SDS011;10992;48.170;8.596;2023-08-31T06:03:50;3.90;;;2.10;;
21661;SDS011;10992;48.170;8.596;2023-08-31T06:06:17;7.47;;;2.30;;
21661;SDS011;10992;48.170;8.596;2023-08-31T06:08:44;3.85;;;2.22;;
21661;SDS011;10992;48.170;8.596;2023-08-31T06:11:11;5.88;;;2.70;;
21661;SDS011;10992;48.170;8.596;2023-08-31T06:13:40;5.15;;;2.60;;
21661;SDS011;10992;48.170;8.596;2023-08-31T06:16:07;4.00;;;2.10;;
21661;SDS011;10992;48.170;8.596;2023-08-31T06:18:34;4.75;;;2.70;;
21661;SDS011;10992;48.170;8.596;2023-08-31T06:21:01;4.97;;;2.55;;
21661;SDS011;10992;48.170;8.596;2023-08-31T06:23:28;4.32;;;2.40;;
21661;SDS011;10992;48.170;8.596;2023-08-31T06:25:54;4.97;;;2.63;;
21661;SDS011;10992;48.170;8.596;2023-08-31T06:28:21;4.50;;;2.60;;
21661;SDS011;10992;48.170;8.596;2023-08-31T06:30:48;5.30;;;2.63;;
21661;SDS011;10992;48.170;8.596;2023-08-31T06:33:15;5.70;;;2.30;;
21661;SDS011;10992;48.170;8.596;2023-08-31T06:35:45;5.03;;;2.28;;
21661;SDS011;10992;48.170;8.596;2023-08-31T06:38:15;4.45;;;2.28;;
21661;SDS011;10992;48.170;8.596;2023-08-31T06:40:42;3.58;;;2.20;;
21661;SDS011;10992;48.170;8.596;2023-08-31T06:43:12;8.77;;;2.75;;
21661;SDS011;10992;48.170;8.596;2023-08-31T06:45:40;6.32;;;2.10;;
21661;SDS011;10992;48.170;8.596;2023-08-31T06:48:07;4.72;;;2.35;;
21661;SDS011;10992;48.170;8.596;2023-08-31T06:50:35;4.75;;;2.58;;
21661;SDS011;10992;48.170;8.596;2023-08-31T06:53:02;6.78;;;2.10;;
21661;SDS011;10992;48.170;8.596;2023-08-31T06:55:30;8.05;;;1.92;;
21661;SDS011;10992;48.170;8.596;2023-08-31T06:57:58;7.07;;;2.08;;
21661;SDS011;10992;48.170;8.596;2023-08-31T07:00:25;6.72;;;2.08;;
21661;SDS011;10992;48.170;8.596;2023-08-31T07:02:52;4.85;;;1.65;;
21661;SDS011;10992;48.170;8.596;2023-08-31T07:05:24;4.80;;;1.55;;
21661;SDS011;10992;48.170;8.596;2023-08-31T07:07:52;6.28;;;2.17;;
21661;SDS011;10992;48.170;8.596;2023-08-31T07:10:20;6.28;;;2.30;;
21661;SDS011;10992;48.170;8.596;2023-08-31T07:12:48;3.50;;;1.63;;
21661;SDS011;10992;48.170;8.596;2023-08-31T07:15:15;4.70;;;1.73;;
21661;SDS011;10992;48.170;8.596;2023-08-31T07:17:42;4.13;;;1.77;;
21661;SDS011;10992;48.170;8.596;2023-08-31T07:20:09;8.93;;;2.40;;
21661;SDS011;10992;48.170;8.596;2023-08-31T07:22:37;4.63;;;2.80;;
21661;SDS011;10992;48.170;8.596;2023-08-31T07:25:04;4.82;;;2.33;;
21661;SDS011;10992;48.170;8.596;2023-08-31T07:27:32;9.43;;;2.95;;
21661;SDS011;10992;48.170;8.596;2023-08-31T07:29:59;6.85;;;2.33;;
21661;SDS011;10992;48.170;8.596;2023-08-31T07:32:26;6.00;;;2.35;;
21661;SDS011;10992;48.170;8.596;2023-08-31T07:34:54;2.80;;;1.70;;
21661;SDS011;10992;48.170;8.596;2023-08-31T07:37:21;3.25;;;1.30;;
21661;SDS011;10992;48.170;8.596;2023-08-31T07:39:48;4.43;;;1.38;;
21661;SDS011;10992;48.170;8.596;2023-08-31T07:42:15;4.15;;;1.35;;
21661;SDS011;10992;48.170;8.596;2023-08-31T07:44:42;3.40;;;1.45;;
21661;SDS011;10992;48.170;8.596;2023-08-31T07:47:10;5.72;;;1.50;;
21661;SDS011;10992;48.170;8.596;2023-08-31T07:49:37;4.97;;;1.58;;
21661;SDS011;10992;48.170;8.596;2023-08-31T07:52:04;3.15;;;1.30;;
21661;SDS011;10992;48.170;8.596;2023-08-31T07:54:31;4.65;;;1.50;;
21661;SDS011;10992;48.170;8.596;2023-08-31T07:56:58;3.58;;;1.40;;
21661;SDS011;10992;48.170;8.596;2023-08-31T07:59:24;3.67;;;1.80;;
21661;SDS011;10992;48.170;8.596;2023-08-31T08:01:51;4.95;;;1.70;;
21661;SDS011;10992;48.170;8.596;2023-08-31T08:04:18;4.10;;;1.67;;
21661;SDS011;10992;48.170;8.596;2023-08-31T08:06:46;4.18;;;2.17;;
21661;SDS011;10992;48.170;8.596;2023-08-31T08:09:12;4.00;;;2.00;;
21661;SDS011;10992;48.170;8.596;2023-08-31T08:11:39;3.75;;;1.95;;
21661;SDS011;10992;48.170;8.596;2023-08-31T08:14:06;3.22;;;1.50;;
21661;SDS011;10992;48.170;8.596;2023-08-31T08:16:33;2.42;;;1.42;;
21661;SDS011;10992;48.170;8.596;2023-08-31T08:19:02;3.50;;;1.30;;
21661;SDS011;10992;48.170;8.596;2023-08-31T08:21:29;6.25;;;1.33;;
21661;SDS011;10992;48.170;8.596;2023-08-31T08:23:56;2.70;;;1.38;;
21661;SDS011;10992;48.170;8.596;2023-08-31T08:26:23;2.88;;;1.50;;
21661;SDS011;10992;48.170;8.596;2023-08-31T08:28:50;5.60;;;1.90;;
21661;SDS011;10992;48.170;8.596;2023-08-31T08:31:17;2.45;;;1.40;;
21661;SDS011;10992;48.170;8.596;2023-08-31T08:33:44;4.93;;;1.90;;
21661;SDS011;10992;48.170;8.596;2023-08-31T08:36:11;3.60;;;1.80;;
21661;SDS011;10992;48.170;8.596;2023-08-31T08:38:37;2.22;;;1.35;;
21661;SDS011;10992;48.170;8.596;2023-08-31T08:41:05;5.80;;;1.60;;
21661;SDS011;10992;48.170;8.596;2023-08-31T08:43:35;2.97;;;1.33;;
21661;SDS011;10992;48.170;8.596;2023-08-31T08:46:06;2.88;;;1.23;;
21661;SDS011;10992;48.170;8.596;2023-08-31T08:48:47;2.75;;;1.30;;
21661;SDS011;10992;48.170;8.596;2023-08-31T08:51:15;3.20;;;1.25;;
21661;SDS011;10992;48.170;8.596;2023-08-31T08:53:42;6.97;;;1.83;;
21661;SDS011;10992;48.170;8.596;2023-08-31T08:56:10;3.75;;;1.67;;
21661;SDS011;10992;48.170;8.596;2023-08-31T08:58:37;5.45;;;1.70;;
21661;SDS011;10992;48.170;8.596;2023-08-31T09:01:04;3.55;;;1.60;;
21661;SDS011;10992;48.170;8.596;2023-08-31T09:03:34;5.25;;;1.38;;
21661;SDS011;10992;48.170;8.596;2023-08-31T09:06:01;4.57;;;1.38;;
21661;SDS011;10992;48.170;8.596;2023-08-31T09:08:30;8.55;;;1.98;;
21661;SDS011;10992;48.170;8.596;2023-08-31T09:10:57;3.35;;;1.60;;
21661;SDS011;10992;48.170;8.596;2023-08-31T09:13:28;2.97;;;1.25;;
21661;SDS011;10992;48.170;8.596;2023-08-31T09:15:56;4.60;;;2.05;;
21661;SDS011;10992;48.170;8.596;2023-08-31T09:18:30;2.40;;;1.33;;
21661;SDS011;10992;48.170;8.596;2023-08-31T09:20:59;2.70;;;1.30;;
21661;SDS011;10992;48.170;8.596;2023-08-31T09:23:27;4.35;;;1.65;;
21661;SDS011;10992;48.170;8.596;2023-08-31T09:25:55;4.18;;;1.45;;
21661;SDS011;10992;48.170;8.596;2023-08-31T09:28:23;2.42;;;1.48;;
21661;SDS011;10992;48.170;8.596;2023-08-31T09:31:04;4.10;;;1.55;;
21661;SDS011;10992;48.170;8.596;2023-08-31T09:33:36;2.60;;;1.30;;
21661;SDS011;10992;48.170;8.596;2023-08-31T09:36:05;2.83;;;1.25;;
21661;SDS011;10992;48.170;8.596;2023-08-31T09:38:40;5.85;;;1.35;;
21661;SDS011;10992;48.170;8.596;2023-08-31T09:41:08;5.00;;;1.70;;
21661;SDS011;10992;48.170;8.596;2023-08-31T09:43:36;2.42;;;1.50;;
21661;SDS011;10992;48.170;8.596;2023-08-31T09:46:03;3.47;;;1.52;;
21661;SDS011;10992;48.170;8.596;2023-08-31T09:48:31;4.88;;;1.48;;
21661;SDS011;10992;48.170;8.596;2023-08-31T09:50:58;4.55;;;1.50;;
21661;SDS011;10992;48.170;8.596;2023-08-31T09:53:31;4.85;;;1.70;;
21661;SDS011;10992;48.170;8.596;2023-08-31T09:55:58;4.07;;;1.70;;
21661;SDS011;10992;48.170;8.596;2023-08-31T09:58:26;5.05;;;1.65;;
21661;SDS011;10992;48.170;8.596;2023-08-31T10:00:57;3.25;;;1.55;;
21661;SDS011;10992;48.170;8.596;2023-08-31T10:03:25;3.38;;;1.60;;
21661;SDS011;10992;48.170;8.596;2023-08-31T10:05:53;5.22;;;1.67;;
21661;SDS011;10992;48.170;8.596;2023-08-31T10:08:21;3.38;;;1.48;;
21661;SDS011;10992;48.170;8.596;2023-08-31T10:10:50;2.53;;;1.15;;
21661;SDS011;10992;48.170;8.596;2023-08-31T10:13:18;4.60;;;1.50;;
21661;SDS011;10992;48.170;8.596;2023-08-31T10:15:47;4.50;;;1.50;;
21661;SDS011;10992;48.170;8.596;2023-08-31T10:18:15;6.00;;;1.50;;
21661;SDS011;10992;48.170;8.596;2023-08-31T10:20:43;3.95;;;1.80;;
21661;SDS011;10992;48.170;8.596;2023-08-31T10:23:11;4.20;;;1.33;;
21661;SDS011;10992;48.170;8.596;2023-08-31T10:28:19;6.15;;;1.48;;
21661;SDS011;10992;48.170;8.596;2023-08-31T10:31:09;3.83;;;1.50;;
21661;SDS011;10992;48.170;8.596;2023-08-31T10:33:42;4.25;;;1.58;;
21661;SDS011;10992;48.170;8.596;2023-08-31T10:36:14;4.07;;;1.50;;
21661;SDS011;10992;48.170;8.596;2023-08-31T10:38:44;3.42;;;1.60;;
21661;SDS011;10992;48.170;8.596;2023-08-31T10:41:23;6.05;;;1.35;;
21661;SDS011;10992;48.170;8.596;2023-08-31T10:51:38;2.95;;;1.20;;
21661;SDS011;10992;48.170;8.596;2023-08-31T10:54:10;3.55;;;1.58;;
21661;SDS011;10992;48.170;8.596;2023-08-31T10:56:49;2.67;;;1.40;;
21661;SDS011;10992;48.170;8.596;2023-08-31T10:59:19;2.78;;;1.13;;
21661;SDS011;10992;48.170;8.596;2023-08-31T11:01:53;3.85;;;1.23;;
21661;SDS011;10992;48.170;8.596;2023-08-31T11:04:22;3.63;;;1.60;;
21661;SDS011;10992;48.170;8.596;2023-08-31T11:07:11;5.18;;;1.77;;
21661;SDS011;10992;48.170;8.596;2023-08-31T11:09:41;4.13;;;1.58;;
21661;SDS011;10992;48.170;8.596;2023-08-31T11:12:09;4.82;;;1.63;;
21661;SDS011;10992;48.170;8.596;2023-08-31T11:14:36;5.78;;;1.52;;
21661;SDS011;10992;48.170;8.596;2023-08-31T11:17:04;4.53;;;1.42;;
21661;SDS011;10992;48.170;8.596;2023-08-31T11:19:33;3.72;;;1.25;;
21661;SDS011;10992;48.170;8.596;2023-08-31T11:22:02;4.90;;;1.55;;
21661;SDS011;10992;48.170;8.596;2023-08-31T11:24:30;3.13;;;1.75;;
21661;SDS011;10992;48.170;8.596;2023-08-31T11:26:58;5.20;;;1.70;;
21661;SDS011;10992;48.170;8.596;2023-08-31T11:29:26;3.92;;;1.70;;
21661;SDS011;10992;48.170;8.596;2023-08-31T11:31:55;4.05;;;1.50;;
21661;SDS011;10992;48.170;8.596;2023-08-31T11:34:24;3.78;;;1.60;;
21661;SDS011;10992;48.170;8.596;2023-08-31T11:36:51;4.80;;;1.70;;
21661;SDS011;10992;48.170;8.596;2023-08-31T11:39:19;4.13;;;1.50;;
21661;SDS011;10992;48.170;8.596;2023-08-31T11:41:46;3.75;;;1.45;;
21661;SDS011;10992;48.170;8.596;2023-08-31T11:44:14;5.80;;;1.70;;
21661;SDS011;10992;48.170;8.596;2023-08-31T11:46:43;4.80;;;1.67;;
21661;SDS011;10992;48.170;8.596;2023-08-31T11:49:17;2.95;;;1.60;;
21661;SDS011;10992;48.170;8.596;2023-08-31T11:51:45;5.07;;;1.50;;
21661;SDS011;10992;48.170;8.596;2023-08-31T11:54:17;5.93;;;1.67;;
21661;SDS011;10992;48.170;8.596;2023-08-31T11:56:44;3.05;;;1.40;;
21661;SDS011;10992;48.170;8.596;2023-08-31T11:59:17;3.05;;;1.52;;
21661;SDS011;10992;48.170;8.596;2023-08-31T12:01:46;5.30;;;1.33;;
21661;SDS011;10992;48.170;8.596;2023-08-31T12:04:23;5.97;;;1.45;;
21661;SDS011;10992;48.170;8.596;2023-08-31T12:06:51;5.68;;;1.58;;
21661;SDS011;10992;48.170;8.596;2023-08-31T12:09:20;2.75;;;1.45;;
21661;SDS011;10992;48.170;8.596;2023-08-31T12:11:51;4.63;;;1.35;;
21661;SDS011;10992;48.170;8.596;2023-08-31T12:14:19;2.80;;;1.38;;
21661;SDS011;10992;48.170;8.596;2023-08-31T12:16:50;6.03;;;1.58;;
21661;SDS011;10992;48.170;8.596;2023-08-31T12:19:18;6.30;;;1.67;;
21661;SDS011;10992;48.170;8.596;2023-08-31T12:21:45;4.30;;;1.67;;
21661;SDS011;10992;48.170;8.596;2023-08-31T12:24:13;3.15;;;1.73;;
21661;SDS011;10992;48.170;8.596;2023-08-31T12:26:40;3.70;;;1.63;;
21661;SDS011;10992;48.170;8.596;2023-08-31T12:29:07;4.97;;;1.65;;
21661;SDS011;10992;48.170;8.596;2023-08-31T12:31:35;3.83;;;1.90;;
21661;SDS011;10992;48.170;8.596;2023-08-31T12:34:03;5.88;;;2.10;;
21661;SDS011;10992;48.170;8.596;2023-08-31T12:36:32;2.75;;;1.70;;
21661;SDS011;10992;48.170;8.596;2023-08-31T12:38:59;4.30;;;1.50;;
21661;SDS011;10992;48.170;8.596;2023-08-31T12:41:28;5.10;;;1.80;;
21661;SDS011;10992;48.170;8.596;2023-08-31T12:43:55;4.53;;;1.83;;
21661;SDS011;10992;48.170;8.596;2023-08-31T12:46:23;4.57;;;1.77;;
21661;SDS011;10992;48.170;8.596;2023-08-31T12:48:50;3.80;;;1.75;;
21661;SDS011;10992;48.170;8.596;2023-08-31T12:51:19;3.88;;;1.80;;
21661;SDS011;10992;48.170;8.596;2023-08-31T12:53:46;3.55;;;1.70;;
21661;SDS011;10992;48.170;8.596;2023-08-31T12:56:15;6.25;;;1.63;;
21661;SDS011;10992;48.170;8.596;2023-08-31T12:58:48;2.42;;;1.45;;
21661;SDS011;10992;48.170;8.596;2023-08-31T13:01:16;3.67;;;1.65;;
21661;SDS011;10992;48.170;8.596;2023-08-31T13:03:44;3.65;;;1.42;;
21661;SDS011;10992;48.170;8.596;2023-08-31T13:06:13;4.25;;;1.85;;
21661;SDS011;10992;48.170;8.596;2023-08-31T13:08:43;5.63;;;1.63;;
21661;SDS011;10992;48.170;8.596;2023-08-31T13:11:11;3.50;;;1.63;;
21661;SDS011;10992;48.170;8.596;2023-08-31T13:13:39;4.10;;;1.50;;
21661;SDS011;10992;48.170;8.596;2023-08-31T13:16:07;4.50;;;1.67;;
21661;SDS011;10992;48.170;8.596;2023-08-31T13:18:34;6.53;;;1.67;;
21661;SDS011;10992;48.170;8.596;2023-08-31T13:21:01;3.78;;;1.67;;
21661;SDS011;10992;48.170;8.596;2023-08-31T13:23:29;4.85;;;1.45;;
21661;SDS011;10992;48.170;8.596;2023-08-31T13:25:56;4.93;;;1.45;;
21661;SDS011;10992;48.170;8.596;2023-08-31T13:28:23;4.28;;;1.63;;
21661;SDS011;10992;48.170;8.596;2023-08-31T13:35:03;4.03;;;1.40;;
21661;SDS011;10992;48.170;8.596;2023-08-31T13:37:34;4.35;;;1.77;;
21661;SDS011;10992;48.170;8.596;2023-08-31T13:40:01;4.88;;;1.85;;
21661;SDS011;10992;48.170;8.596;2023-08-31T13:42:33;4.72;;;1.80;;
21661;SDS011;10992;48.170;8.596;2023-08-31T13:45:01;6.40;;;1.90;;
21661;SDS011;10992;48.170;8.596;2023-08-31T13:47:30;3.80;;;1.70;;
21661;SDS011;10992;48.170;8.596;2023-08-31T13:49:57;3.65;;;1.65;;
21661;SDS011;10992;48.170;8.596;2023-08-31T13:52:23;3.70;;;1.70;;
21661;SDS011;10992;48.170;8.596;2023-08-31T13:54:51;3.70;;;1.67;;
21661;SDS011;10992;48.170;8.596;2023-08-31T13:57:17;2.45;;;1.52;;
21661;SDS011;10992;48.170;8.596;2023-08-31T13:59:44;4.65;;;1.80;;
21661;SDS011;10992;48.170;8.596;2023-08-31T14:02:11;4.07;;;1.80;;
21661;SDS011;10992;48.170;8.596;2023-08-31T14:04:38;3.03;;;1.48;;
21661;SDS011;10992;48.170;8.596;2023-08-31T14:07:05;3.05;;;1.50;;
21661;SDS011;10992;48.170;8.596;2023-08-31T14:09:34;3.40;;;1.60;;
21661;SDS011;10992;48.170;8.596;2023-08-31T14:12:01;4.95;;;1.83;;
21661;SDS011;10992;48.170;8.596;2023-08-31T14:14:28;3.92;;;1.65;;
21661;SDS011;10992;48.170;8.596;2023-08-31T14:16:55;3.25;;;1.50;;
21661;SDS011;10992;48.170;8.596;2023-08-31T14:19:22;4.18;;;1.50;;
21661;SDS011;10992;48.170;8.596;2023-08-31T14:21:49;4.53;;;1.65;;
21661;SDS011;10992;48.170;8.596;2023-08-31T14:24:15;4.55;;;1.63;;
21661;SDS011;10992;48.170;8.596;2023-08-31T14:26:43;3.45;;;1.60;;
21661;SDS011;10992;48.170;8.596;2023-08-31T14:29:11;4.75;;;1.63;;
21661;SDS011;10992;48.170;8.596;2023-08-31T14:31:38;4.20;;;1.52;;
21661;SDS011;10992;48.170;8.596;2023-08-31T14:34:05;6.40;;;1.92;;
21661;SDS011;10992;48.170;8.596;2023-08-31T14:36:32;4.18;;;1.52;;
21661;SDS011;10992;48.170;8.596;2023-08-31T14:38:59;2.83;;;1.50;;
21661;SDS011;10992;48.170;8.596;2023-08-31T14:41:26;4.63;;;1.65;;
21661;SDS011;10992;48.170;8.596;2023-08-31T14:43:53;5.40;;;1.98;;
21661;SDS011;10992;48.170;8.596;2023-08-31T14:46:20;6.47;;;2.03;;
21661;SDS011;10992;48.170;8.596;2023-08-31T14:48:48;5.10;;;2.13;;
21661;SDS011;10992;48.170;8.596;2023-08-31T14:51:15;3.88;;;1.98;;
21661;SDS011;10992;48.170;8.596;2023-08-31T14:53:42;3.47;;;1.60;;
21661;SDS011;10992;48.170;8.596;2023-08-31T14:56:09;4.03;;;1.73;;
21661;SDS011;10992;48.170;8.596;2023-08-31T14:58:36;5.53;;;1.75;;
21661;SDS011;10992;48.170;8.596;2023-08-31T15:01:03;6.22;;;1.90;;
21661;SDS011;10992;48.170;8.596;2023-08-31T15:03:30;4.15;;;2.00;;
21661;SDS011;10992;48.170;8.596;2023-08-31T15:05:57;7.72;;;1.73;;
21661;SDS011;10992;48.170;8.596;2023-08-31T15:08:36;3.25;;;1.48;;
21661;SDS011;10992;48.170;8.596;2023-08-31T15:11:05;4.47;;;1.77;;
21661;SDS011;10992;48.170;8.596;2023-08-31T15:13:32;4.70;;;1.90;;